Ye Chi — VRFV6 — position and weather

sailwx.info

Track history (hours):
 
Tides and Currents Weather Stations Pressure Air Temp Water Temp Dewpoint Dewpoint Depression Visibility Wind Speed Wind Dir Waves Ship Positions

Ye Chi

Last reported at 2018-Jan-09 12:12 UTC. Time now 2018-Jan-18 02:16 UTC.
Position N 34°10' E 138°37'.
Warning: this ship's position is 8 days out of date.

Length 186 m; draft 10.8 m.

Type: Tanker. MMSI: 477621300.

Date/timePositionNaut miles runAvg speedWind from/ knotsBaromVisibWave heightAir tempDewpointWater temp
2018-Jan-09 12:12N 34°10' E 138°37'3 7.0
2018-Jan-09 11:49N 34°12' E 138°39'3 6.7
2018-Jan-09 11:20N 34°14' E 138°42'2 6.5
2018-Jan-09 11:00N 34°15' E 138°44'3 6.2
2018-Jan-09 10:30N 34°17' E 138°47'3 6.1
2018-Jan-09 10:00N 34°19' E 138°49'4 6.9
2018-Jan-09 09:30N 34°22' E 138°53'4 7.0
2018-Jan-09 08:59N 34°24' E 138°56'3 6.9
2018-Jan-09 08:30N 34°26' E 138°58'3 6.6
2018-Jan-09 08:01N 34°29' E 139°01'3 5.1
2018-Jan-09 07:30N 34°32' E 139°02'3 6.6
2018-Jan-09 07:00N 34°34' E 139°04'4 7.6
2018-Jan-09 06:30N 34°37' E 139°07'5 8.4
2018-Jan-09 05:58N 34°41' E 139°10'4 8.8
2018-Jan-09 05:30N 34°44' E 139°13'5 9.3
2018-Jan-09 04:58N 34°48' E 139°17'4 8.9
2018-Jan-09 04:30N 34°52' E 139°20'5 9.6
2018-Jan-09 04:00N 34°55' E 139°24'5 9.4
2018-Jan-09 03:30N 34°57' E 139°29'510.0
2018-Jan-09 03:01N 35°00' E 139°34'5 9.8
2018-Jan-09 02:30N 35°03' E 139°39'5 9.8
2018-Jan-09 02:00N 35°06' E 139°44'510.8
2018-Jan-09 01:30N 35°11' E 139°45'4 9.0
2018-Jan-09 01:00N 35°16' E 139°46'612.6
2018-Jan-09 00:30N 35°21' E 139°42'611.8
2018-Jan-09 00:00N 35°27' E 139°45'4 8.2
2018-Jan-08 23:31N 35°31' E 139°46'1 0.7
2018-Jan-08 22:42N 35°31' E 139°46'0 0.0
2018-Jan-08 22:15N 35°31' E 139°46'0 0.0
2018-Jan-08 21:57N 35°31' E 139°46'0 0.0
2018-Jan-08 20:51N 35°31' E 139°46'0 0.0
2018-Jan-08 19:21N 35°31' E 139°46'0 0.0
2018-Jan-08 18:15N 35°31' E 139°46'0 0.0
2018-Jan-08 17:51N 35°31' E 139°46'0 0.0
2018-Jan-08 17:21N 35°31' E 139°46'0 0.0
2018-Jan-08 16:57N 35°31' E 139°46'0 0.0
2018-Jan-08 16:27N 35°31' E 139°46'0 0.0
2018-Jan-08 16:00N 35°31' E 139°46'0 0.0
2018-Jan-08 15:27N 35°31' E 139°46'0 0.0
2018-Jan-08 15:00N 35°31' E 139°46'0 0.0
2018-Jan-08 14:12N 35°31' E 139°46'0 0.0
2018-Jan-08 14:00N 35°31' E 139°46'0 0.0
2018-Jan-08 13:30N 35°31' E 139°46'0 0.0
2018-Jan-08 12:45N 35°31' E 139°46'0 0.0
2018-Jan-08 12:27N 35°31' E 139°46'0 0.0
2018-Jan-08 11:06N 35°31' E 139°46'0 0.0
2018-Jan-08 07:39N 35°31' E 139°46'0 0.0
2018-Jan-07 23:39N 35°31' E 139°46'0 0.0
2018-Jan-07 23:09N 35°31' E 139°46'0 0.0
2018-Jan-07 23:00N 35°31' E 139°46'0 0.0
2018-Jan-07 22:27N 35°31' E 139°46'0 0.0
2018-Jan-07 21:57N 35°31' E 139°46'0 0.0
2018-Jan-07 21:27N 35°31' E 139°46'0 0.0
2018-Jan-07 20:48N 35°31' E 139°46'0 0.0
2018-Jan-07 20:21N 35°31' E 139°46'0 0.0
2018-Jan-07 19:54N 35°31' E 139°46'0 0.0
2018-Jan-07 19:21N 35°31' E 139°46'0 0.0
2018-Jan-07 18:57N 35°31' E 139°46'0 0.0
2018-Jan-07 17:45N 35°31' E 139°46'0 0.0
2018-Jan-07 17:30N 35°31' E 139°46'0 0.0
2018-Jan-07 16:45N 35°31' E 139°46'0 0.0
2018-Jan-07 16:18N 35°31' E 139°46'0 0.0
2018-Jan-07 15:57N 35°31' E 139°46'0 0.0
2018-Jan-07 15:27N 35°31' E 139°46'0 0.0
2018-Jan-07 14:57N 35°31' E 139°46'0 0.0
2018-Jan-07 14:15N 35°31' E 139°46'0 0.0
2018-Jan-07 12:45N 35°31' E 139°46'0 0.0
2018-Jan-07 12:30N 35°31' E 139°46'0 0.0
2018-Jan-07 11:57N 35°31' E 139°46'0 0.0
2018-Jan-07 11:27N 35°31' E 139°46'0 0.0
2018-Jan-07 10:24N 35°31' E 139°46'0 0.0
2018-Jan-07 07:21N 35°31' E 139°46'0 0.0
2018-Jan-07 06:33N 35°31' E 139°46'0 0.0
2018-Jan-07 06:12N 35°31' E 139°46'0 0.0
2018-Jan-07 05:51N 35°31' E 139°46'0 0.0
2018-Jan-07 02:45N 35°31' E 139°46'0 0.0
2018-Jan-07 02:30N 35°31' E 139°46'0 0.0
2018-Jan-07 01:21N 35°31' E 139°46'0 0.3
2018-Jan-07 00:30N 35°31' E 139°46'2 4.4
2018-Jan-07 00:00N 35°29' E 139°48'1 1.4
2018-Jan-06 23:30N 35°29' E 139°48'1 1.6
2018-Jan-06 22:55N 35°28' E 139°48'0 0.0
2018-Jan-06 22:28N 35°28' E 139°48'0 0.1
2018-Jan-06 21:58N 35°28' E 139°48'0 0.0
2018-Jan-06 21:28N 35°28' E 139°48'0 0.1
2018-Jan-06 20:58N 35°28' E 139°48'0 0.1
2018-Jan-06 20:28N 35°28' E 139°48'0 0.1
2018-Jan-06 19:58N 35°28' E 139°48'0 0.2
2018-Jan-06 19:28N 35°28' E 139°48'0 0.0
2018-Jan-06 18:55N 35°28' E 139°48'0 0.1
2018-Jan-06 18:25N 35°28' E 139°48'0 0.0
2018-Jan-06 17:58N 35°28' E 139°48'0 0.1
2018-Jan-06 17:28N 35°28' E 139°48'0 0.1
2018-Jan-06 16:58N 35°28' E 139°48'0 0.0
2018-Jan-06 16:28N 35°28' E 139°48'0 0.1
2018-Jan-06 15:58N 35°28' E 139°48'0 0.1
2018-Jan-06 15:28N 35°28' E 139°48'0 0.0
2018-Jan-06 14:58N 35°28' E 139°48'0 0.0
2018-Jan-06 14:28N 35°28' E 139°48'0 0.0
2018-Jan-06 13:58N 35°28' E 139°48'0 0.0
2018-Jan-06 13:28N 35°28' E 139°48'0 0.1
2018-Jan-06 12:58N 35°28' E 139°48'0 0.0
2018-Jan-06 12:28N 35°28' E 139°48'0 0.0
2018-Jan-06 11:58N 35°28' E 139°48'0 0.4
2018-Jan-06 11:28N 35°28' E 139°48'0 0.0
2018-Jan-06 10:58N 35°28' E 139°48'0 0.1
2018-Jan-06 10:28N 35°28' E 139°48'0 0.0
2018-Jan-06 09:58N 35°28' E 139°48'0 0.0
2018-Jan-06 09:22N 35°28' E 139°48'0 0.0
2018-Jan-06 08:58N 35°28' E 139°48'0 0.1
2018-Jan-06 08:28N 35°28' E 139°48'0 0.0
2018-Jan-06 07:58N 35°28' E 139°48'0 0.0
2018-Jan-06 07:28N 35°28' E 139°48'0 0.0
2018-Jan-06 06:55N 35°28' E 139°48'0 0.0
2018-Jan-06 06:25N 35°28' E 139°48'0 0.0
2018-Jan-06 05:58N 35°28' E 139°48'0 0.0
2018-Jan-06 05:28N 35°28' E 139°48'0 0.1
2018-Jan-06 04:58N 35°28' E 139°48'0 0.0
2018-Jan-06 04:28N 35°28' E 139°48'0 0.2
2018-Jan-06 03:58N 35°28' E 139°48'0 0.2
2018-Jan-06 03:28N 35°28' E 139°48'0 0.2
2018-Jan-06 02:58N 35°28' E 139°48'0 0.1
2018-Jan-06 02:25N 35°28' E 139°48'0 0.0
2018-Jan-06 01:58N 35°28' E 139°48'0 0.1
2018-Jan-06 01:28N 35°28' E 139°48'0 0.1
2018-Jan-06 00:58N 35°28' E 139°48'0 0.0
2018-Jan-06 00:28N 35°28' E 139°48'0 0.0
2018-Jan-05 23:58N 35°28' E 139°48'0 0.0
2018-Jan-05 23:25N 35°28' E 139°48'0 0.0
2018-Jan-05 22:58N 35°28' E 139°48'0 0.1
2018-Jan-05 22:28N 35°28' E 139°48'0 0.1
2018-Jan-05 21:58N 35°28' E 139°48'0 0.0
2018-Jan-05 21:28N 35°28' E 139°48'0 0.0
2018-Jan-05 20:58N 35°28' E 139°48'0 0.1
2018-Jan-05 20:25N 35°28' E 139°48'0 0.0
2018-Jan-05 19:58N 35°28' E 139°48'0 0.0
2018-Jan-05 19:28N 35°28' E 139°48'0 0.0
2018-Jan-05 18:58N 35°28' E 139°48'0 0.1
2018-Jan-05 18:28N 35°28' E 139°48'0 0.1
2018-Jan-05 17:58N 35°28' E 139°48'0 0.1
2018-Jan-05 17:28N 35°28' E 139°48'0 0.1
2018-Jan-05 16:58N 35°28' E 139°48'0 0.2
2018-Jan-05 16:28N 35°28' E 139°48'0 0.0
2018-Jan-05 15:58N 35°28' E 139°48'0 0.0
2018-Jan-05 15:28N 35°28' E 139°48'0 0.0
2018-Jan-05 14:58N 35°28' E 139°48'0 0.0
2018-Jan-05 14:28N 35°28' E 139°48'0 0.1
2018-Jan-05 13:58N 35°28' E 139°48'0 0.0
2018-Jan-05 13:28N 35°28' E 139°48'0 0.0
2018-Jan-05 12:58N 35°28' E 139°48'0 0.0
2018-Jan-05 12:28N 35°28' E 139°48'0 0.1
2018-Jan-05 11:58N 35°28' E 139°48'0 0.1
2018-Jan-05 11:28N 35°28' E 139°48'0 0.0
2018-Jan-05 10:58N 35°28' E 139°48'0 0.0
2018-Jan-05 10:28N 35°28' E 139°48'0 0.1
2018-Jan-05 09:55N 35°28' E 139°48'0 0.1
2018-Jan-05 09:28N 35°28' E 139°48'0 0.1
2018-Jan-05 08:55N 35°28' E 139°48'0 0.1
2018-Jan-05 08:28N 35°28' E 139°48'0 0.1
2018-Jan-05 07:58N 35°28' E 139°48'0 0.1
2018-Jan-05 07:28N 35°28' E 139°48'0 0.1
2018-Jan-05 06:55N 35°28' E 139°48'0 0.2
2018-Jan-05 06:22N 35°28' E 139°48'0 1.0
2018-Jan-05 06:00N 35°28' E 139°48'5 9.1
2018-Jan-05 05:30N 35°23' E 139°46'611.9
2018-Jan-05 05:00N 35°17' E 139°45'611.9
2018-Jan-05 04:31N 35°12' E 139°47'510.3
2018-Jan-05 04:01N 35°07' E 139°44'612.2
2018-Jan-05 03:30N 35°01' E 139°42'612.5
2018-Jan-05 03:00N 34°55' E 139°41'612.1
2018-Jan-05 02:30N 34°49' E 139°43'611.6
2018-Jan-05 02:00N 34°43' E 139°44'  
Track history (hours):
 
Tides and Currents Weather Stations Pressure Air Temp Water Temp Dewpoint Dewpoint Depression Visibility Wind Speed Wind Dir Waves Ship Positions

Ye Chi

Last reported at 2018-Jan-09 12:12 UTC. Time now 2018-Jan-18 02:16 UTC.
Position N 34°10' E 138°37'.
Warning: this ship's position is 8 days out of date.

Length 186 m; draft 10.8 m.

Type: Tanker. MMSI: 477621300.

Date/timePositionNaut miles runAvg speedWind from/ knotsBaromVisibWave heightAir tempDewpointWater temp
2018-Jan-09 12:12N 34°10' E 138°37'3 7.0
2018-Jan-09 11:49N 34°12' E 138°39'3 6.7
2018-Jan-09 11:20N 34°14' E 138°42'2 6.5
2018-Jan-09 11:00N 34°15' E 138°44'3 6.2
2018-Jan-09 10:30N 34°17' E 138°47'3 6.1
2018-Jan-09 10:00N 34°19' E 138°49'4 6.9
2018-Jan-09 09:30N 34°22' E 138°53'4 7.0
2018-Jan-09 08:59N 34°24' E 138°56'3 6.9
2018-Jan-09 08:30N 34°26' E 138°58'3 6.6
2018-Jan-09 08:01N 34°29' E 139°01'3 5.1
2018-Jan-09 07:30N 34°32' E 139°02'3 6.6
2018-Jan-09 07:00N 34°34' E 139°04'4 7.6
2018-Jan-09 06:30N 34°37' E 139°07'5 8.4
2018-Jan-09 05:58N 34°41' E 139°10'4 8.8
2018-Jan-09 05:30N 34°44' E 139°13'5 9.3
2018-Jan-09 04:58N 34°48' E 139°17'4 8.9
2018-Jan-09 04:30N 34°52' E 139°20'5 9.6
2018-Jan-09 04:00N 34°55' E 139°24'5 9.4
2018-Jan-09 03:30N 34°57' E 139°29'510.0
2018-Jan-09 03:01N 35°00' E 139°34'5 9.8
2018-Jan-09 02:30N 35°03' E 139°39'5 9.8
2018-Jan-09 02:00N 35°06' E 139°44'510.8
2018-Jan-09 01:30N 35°11' E 139°45'4 9.0
2018-Jan-09 01:00N 35°16' E 139°46'612.6
2018-Jan-09 00:30N 35°21' E 139°42'611.8
2018-Jan-09 00:00N 35°27' E 139°45'4 8.2
2018-Jan-08 23:31N 35°31' E 139°46'1 0.7
2018-Jan-08 22:42N 35°31' E 139°46'0 0.0
2018-Jan-08 22:15N 35°31' E 139°46'0 0.0
2018-Jan-08 21:57N 35°31' E 139°46'0 0.0
2018-Jan-08 20:51N 35°31' E 139°46'0 0.0
2018-Jan-08 19:21N 35°31' E 139°46'0 0.0
2018-Jan-08 18:15N 35°31' E 139°46'0 0.0
2018-Jan-08 17:51N 35°31' E 139°46'0 0.0
2018-Jan-08 17:21N 35°31' E 139°46'0 0.0
2018-Jan-08 16:57N 35°31' E 139°46'0 0.0
2018-Jan-08 16:27N 35°31' E 139°46'0 0.0
2018-Jan-08 16:00N 35°31' E 139°46'0 0.0
2018-Jan-08 15:27N 35°31' E 139°46'0 0.0
2018-Jan-08 15:00N 35°31' E 139°46'0 0.0
2018-Jan-08 14:12N 35°31' E 139°46'0 0.0
2018-Jan-08 14:00N 35°31' E 139°46'0 0.0
2018-Jan-08 13:30N 35°31' E 139°46'0 0.0
2018-Jan-08 12:45N 35°31' E 139°46'0 0.0
2018-Jan-08 12:27N 35°31' E 139°46'0 0.0
2018-Jan-08 11:06N 35°31' E 139°46'0 0.0
2018-Jan-08 07:39N 35°31' E 139°46'0 0.0
2018-Jan-07 23:39N 35°31' E 139°46'0 0.0
2018-Jan-07 23:09N 35°31' E 139°46'0 0.0
2018-Jan-07 23:00N 35°31' E 139°46'0 0.0
2018-Jan-07 22:27N 35°31' E 139°46'0 0.0
2018-Jan-07 21:57N 35°31' E 139°46'0 0.0
2018-Jan-07 21:27N 35°31' E 139°46'0 0.0
2018-Jan-07 20:48N 35°31' E 139°46'0 0.0
2018-Jan-07 20:21N 35°31' E 139°46'0 0.0
2018-Jan-07 19:54N 35°31' E 139°46'0 0.0
2018-Jan-07 19:21N 35°31' E 139°46'0 0.0
2018-Jan-07 18:57N 35°31' E 139°46'0 0.0
2018-Jan-07 17:45N 35°31' E 139°46'0 0.0
2018-Jan-07 17:30N 35°31' E 139°46'0 0.0
2018-Jan-07 16:45N 35°31' E 139°46'0 0.0
2018-Jan-07 16:18N 35°31' E 139°46'0 0.0
2018-Jan-07 15:57N 35°31' E 139°46'0 0.0
2018-Jan-07 15:27N 35°31' E 139°46'0 0.0
2018-Jan-07 14:57N 35°31' E 139°46'0 0.0
2018-Jan-07 14:15N 35°31' E 139°46'0 0.0
2018-Jan-07 12:45N 35°31' E 139°46'0 0.0
2018-Jan-07 12:30N 35°31' E 139°46'0 0.0
2018-Jan-07 11:57N 35°31' E 139°46'0 0.0
2018-Jan-07 11:27N 35°31' E 139°46'0 0.0
2018-Jan-07 10:24N 35°31' E 139°46'0 0.0
2018-Jan-07 07:21N 35°31' E 139°46'0 0.0
2018-Jan-07 06:33N 35°31' E 139°46'0 0.0
2018-Jan-07 06:12N 35°31' E 139°46'0 0.0
2018-Jan-07 05:51N 35°31' E 139°46'0 0.0
2018-Jan-07 02:45N 35°31' E 139°46'0 0.0
2018-Jan-07 02:30N 35°31' E 139°46'0 0.0
2018-Jan-07 01:21N 35°31' E 139°46'0 0.3
2018-Jan-07 00:30N 35°31' E 139°46'2 4.4
2018-Jan-07 00:00N 35°29' E 139°48'1 1.4
2018-Jan-06 23:30N 35°29' E 139°48'1 1.6
2018-Jan-06 22:55N 35°28' E 139°48'0 0.0
2018-Jan-06 22:28N 35°28' E 139°48'0 0.1
2018-Jan-06 21:58N 35°28' E 139°48'0 0.0
2018-Jan-06 21:28N 35°28' E 139°48'0 0.1
2018-Jan-06 20:58N 35°28' E 139°48'0 0.1
2018-Jan-06 20:28N 35°28' E 139°48'0 0.1
2018-Jan-06 19:58N 35°28' E 139°48'0 0.2
2018-Jan-06 19:28N 35°28' E 139°48'0 0.0
2018-Jan-06 18:55N 35°28' E 139°48'0 0.1
2018-Jan-06 18:25N 35°28' E 139°48'0 0.0
2018-Jan-06 17:58N 35°28' E 139°48'0 0.1
2018-Jan-06 17:28N 35°28' E 139°48'0 0.1
2018-Jan-06 16:58N 35°28' E 139°48'0 0.0
2018-Jan-06 16:28N 35°28' E 139°48'0 0.1
2018-Jan-06 15:58N 35°28' E 139°48'0 0.1
2018-Jan-06 15:28N 35°28' E 139°48'0 0.0
2018-Jan-06 14:58N 35°28' E 139°48'0 0.0
2018-Jan-06 14:28N 35°28' E 139°48'0 0.0
2018-Jan-06 13:58N 35°28' E 139°48'0 0.0
2018-Jan-06 13:28N 35°28' E 139°48'0 0.1
2018-Jan-06 12:58N 35°28' E 139°48'0 0.0
2018-Jan-06 12:28N 35°28' E 139°48'0 0.0
2018-Jan-06 11:58N 35°28' E 139°48'0 0.4
2018-Jan-06 11:28N 35°28' E 139°48'0 0.0
2018-Jan-06 10:58N 35°28' E 139°48'0 0.1
2018-Jan-06 10:28N 35°28' E 139°48'0 0.0
2018-Jan-06 09:58N 35°28' E 139°48'0 0.0
2018-Jan-06 09:22N 35°28' E 139°48'0 0.0
2018-Jan-06 08:58N 35°28' E 139°48'0 0.1
2018-Jan-06 08:28N 35°28' E 139°48'0 0.0
2018-Jan-06 07:58N 35°28' E 139°48'0 0.0
2018-Jan-06 07:28N 35°28' E 139°48'0 0.0
2018-Jan-06 06:55N 35°28' E 139°48'0 0.0
2018-Jan-06 06:25N 35°28' E 139°48'0 0.0
2018-Jan-06 05:58N 35°28' E 139°48'0 0.0
2018-Jan-06 05:28N 35°28' E 139°48'0 0.1
2018-Jan-06 04:58N 35°28' E 139°48'0 0.0
2018-Jan-06 04:28N 35°28' E 139°48'0 0.2
2018-Jan-06 03:58N 35°28' E 139°48'0 0.2
2018-Jan-06 03:28N 35°28' E 139°48'0 0.2
2018-Jan-06 02:58N 35°28' E 139°48'0 0.1
2018-Jan-06 02:25N 35°28' E 139°48'0 0.0
2018-Jan-06 01:58N 35°28' E 139°48'0 0.1
2018-Jan-06 01:28N 35°28' E 139°48'0 0.1
2018-Jan-06 00:58N 35°28' E 139°48'0 0.0
2018-Jan-06 00:28N 35°28' E 139°48'0 0.0
2018-Jan-05 23:58N 35°28' E 139°48'0 0.0
2018-Jan-05 23:25N 35°28' E 139°48'0 0.0
2018-Jan-05 22:58N 35°28' E 139°48'0 0.1
2018-Jan-05 22:28N 35°28' E 139°48'0 0.1
2018-Jan-05 21:58N 35°28' E 139°48'0 0.0
2018-Jan-05 21:28N 35°28' E 139°48'0 0.0
2018-Jan-05 20:58N 35°28' E 139°48'0 0.1
2018-Jan-05 20:25N 35°28' E 139°48'0 0.0
2018-Jan-05 19:58N 35°28' E 139°48'0 0.0
2018-Jan-05 19:28N 35°28' E 139°48'0 0.0
2018-Jan-05 18:58N 35°28' E 139°48'0 0.1
2018-Jan-05 18:28N 35°28' E 139°48'0 0.1
2018-Jan-05 17:58N 35°28' E 139°48'0 0.1
2018-Jan-05 17:28N 35°28' E 139°48'0 0.1
2018-Jan-05 16:58N 35°28' E 139°48'0 0.2
2018-Jan-05 16:28N 35°28' E 139°48'0 0.0
2018-Jan-05 15:58N 35°28' E 139°48'0 0.0
2018-Jan-05 15:28N 35°28' E 139°48'0 0.0
2018-Jan-05 14:58N 35°28' E 139°48'0 0.0
2018-Jan-05 14:28N 35°28' E 139°48'0 0.1
2018-Jan-05 13:58N 35°28' E 139°48'0 0.0
2018-Jan-05 13:28N 35°28' E 139°48'0 0.0
2018-Jan-05 12:58N 35°28' E 139°48'0 0.0
2018-Jan-05 12:28N 35°28' E 139°48'0 0.1
2018-Jan-05 11:58N 35°28' E 139°48'0 0.1
2018-Jan-05 11:28N 35°28' E 139°48'0 0.0
2018-Jan-05 10:58N 35°28' E 139°48'0 0.0
2018-Jan-05 10:28N 35°28' E 139°48'0 0.1
2018-Jan-05 09:55N 35°28' E 139°48'0 0.1
2018-Jan-05 09:28N 35°28' E 139°48'0 0.1
2018-Jan-05 08:55N 35°28' E 139°48'0 0.1
2018-Jan-05 08:28N 35°28' E 139°48'0 0.1
2018-Jan-05 07:58N 35°28' E 139°48'0 0.1
2018-Jan-05 07:28N 35°28' E 139°48'0 0.1
2018-Jan-05 06:55N 35°28' E 139°48'0 0.2
2018-Jan-05 06:22N 35°28' E 139°48'0 1.0
2018-Jan-05 06:00N 35°28' E 139°48'5 9.1
2018-Jan-05 05:30N 35°23' E 139°46'611.9
2018-Jan-05 05:00N 35°17' E 139°45'611.9
2018-Jan-05 04:31N 35°12' E 139°47'510.3
2018-Jan-05 04:01N 35°07' E 139°44'612.2
2018-Jan-05 03:30N 35°01' E 139°42'612.5
2018-Jan-05 03:00N 34°55' E 139°41'612.1
2018-Jan-05 02:30N 34°49' E 139°43'611.6
2018-Jan-05 02:00N 34°43' E 139°44'  

Dump ship's entire track history